PWSweather.com
Personal Weather Stations
Station Observations
COONRAPIDS
Minneapolis, MN 55433

Minneapolis, MN 55433

Lat: 45.187721, Lon: -93.36828

Elevation: 898

Station Type: Davis Vantage Pro 2

High Low Average
Temperature 33.0°F0.6°C 26.3°F-3.2°C 29.7°F-1.3°C
Dew Point 29.1°F-1.6°C 23.5°F-4.7°C 26.3°F-3.2°C
Winds 9.2 mph 14.8 kmh Calm Calm 4.0 mph NE6.4 kmh NE
Wind Gusts 16.1 mph25.9 kmh -- 7.0 mph11.3 kmh
Humidity 89% 82% 87%
Pressure 29.99 in1015.6 mb 29.63 in1003.4 mb -
Precipitation 0.00 in0.0 mm - -
Hour Temp Dew Point Humidity Winds Wind Gusts Pressure Precip Precip Rate Daily Precip Total
12:00 AM 28.2°F-2.1°C 25.4°F-3.7°C 89% Calm Calm -- 29.99 in1015.6 mb - 0.00 in0.0 mm 0.00 in0.0 mm
12:10 AM 28.1°F-2.2°C 25.3°F-3.7°C 89% Calm Calm 1.2 mph1.9 kmh 29.97 in1014.9 mb - 0.00 in0.0 mm 0.00 in0.0 mm
12:20 AM 28.0°F-2.2°C 25.2°F-3.8°C 89% 1.2 mph NE1.9 kmh NE 3.5 mph5.6 kmh 29.97 in1014.9 mb - 0.00 in0.0 mm 0.00 in0.0 mm
12:30 AM 27.9°F-2.3°C 25.1°F-3.8°C 89% Calm Calm -- 29.96 in1014.6 mb - 0.00 in0.0 mm 0.00 in0.0 mm
12:40 AM 27.7°F-2.4°C 24.9°F-3.9°C 89% 1.2 mph NE1.9 kmh NE 2.3 mph3.7 kmh 29.96 in1014.6 mb - 0.00 in0.0 mm 0.00 in0.0 mm
12:50 AM 27.6°F-2.4°C 24.8°F-4.0°C 89% 2.3 mph ENE3.7 kmh ENE 4.6 mph7.4 kmh 29.97 in1014.9 mb - 0.00 in0.0 mm 0.00 in0.0 mm
01:00 AM 27.6°F-2.4°C 24.8°F-4.0°C 89% 1.2 mph NE1.9 kmh NE 3.5 mph5.6 kmh 29.96 in1014.6 mb - 0.00 in0.0 mm 0.00 in0.0 mm
01:10 AM 27.6°F-2.4°C 24.8°F-4.0°C 89% 2.3 mph NE3.7 kmh NE 5.8 mph9.3 kmh 29.97 in1014.9 mb - 0.00 in0.0 mm 0.00 in0.0 mm
01:20 AM 27.6°F-2.4°C 24.8°F-4.0°C 89% Calm Calm -- 29.98 in1015.2 mb - 0.00 in0.0 mm 0.00 in0.0 mm
01:30 AM 27.6°F-2.4°C 24.8°F-4.0°C 89% 1.2 mph E1.9 kmh E 3.5 mph5.6 kmh 29.98 in1015.2 mb - 0.00 in0.0 mm 0.00 in0.0 mm
01:40 AM 27.5°F-2.5°C 24.7°F-4.1°C 89% 1.2 mph ENE1.9 kmh ENE 4.6 mph7.4 kmh 29.98 in1015.2 mb - 0.00 in0.0 mm 0.00 in0.0 mm
01:50 AM 27.4°F-2.6°C 24.6°F-4.1°C 89% Calm Calm -- 29.99 in1015.6 mb - 0.00 in0.0 mm 0.00 in0.0 mm
02:00 AM 27.4°F-2.6°C 24.6°F-4.1°C 89% Calm Calm 3.5 mph5.6 kmh 29.98 in1015.2 mb - 0.00 in0.0 mm 0.00 in0.0 mm
02:10 AM 27.3°F-2.6°C 24.5°F-4.2°C 89% Calm Calm 2.3 mph3.7 kmh 29.98 in1015.2 mb - 0.00 in0.0 mm 0.00 in0.0 mm
02:20 AM 27.3°F-2.6°C 24.5°F-4.2°C 89% 1.2 mph ENE1.9 kmh ENE 3.5 mph5.6 kmh 29.98 in1015.2 mb - 0.00 in0.0 mm 0.00 in0.0 mm
02:30 AM 27.2°F-2.7°C 24.4°F-4.2°C 89% 3.5 mph ENE5.6 kmh ENE 6.9 mph11.1 kmh 29.98 in1015.2 mb - 0.00 in0.0 mm 0.00 in0.0 mm
02:40 AM 27.1°F-2.7°C 24.3°F-4.3°C 89% 1.2 mph NE1.9 kmh NE 3.5 mph5.6 kmh 29.98 in1015.2 mb - 0.00 in0.0 mm 0.00 in0.0 mm
02:50 AM 27.0°F-2.8°C 24.2°F-4.3°C 89% 2.3 mph ENE3.7 kmh ENE 5.8 mph9.3 kmh 29.98 in1015.2 mb - 0.00 in0.0 mm 0.00 in0.0 mm
03:00 AM 27.0°F-2.8°C 24.2°F-4.3°C 89% 1.2 mph NE1.9 kmh NE 3.5 mph5.6 kmh 29.98 in1015.2 mb - 0.00 in0.0 mm 0.00 in0.0 mm
03:10 AM 26.9°F-2.8°C 24.1°F-4.4°C 89% Calm Calm -- 29.97 in1014.9 mb - 0.00 in0.0 mm 0.00 in0.0 mm
03:20 AM 26.9°F-2.8°C 24.1°F-4.4°C 89% 1.2 mph E1.9 kmh E 3.5 mph5.6 kmh 29.97 in1014.9 mb - 0.00 in0.0 mm 0.00 in0.0 mm
03:30 AM 26.9°F-2.8°C 24.1°F-4.4°C 89% 2.3 mph E3.7 kmh E 3.5 mph5.6 kmh 29.98 in1015.2 mb - 0.00 in0.0 mm 0.00 in0.0 mm
03:40 AM 26.8°F-2.9°C 24.0°F-4.4°C 89% 2.3 mph NE3.7 kmh NE 3.5 mph5.6 kmh 29.98 in1015.2 mb - 0.00 in0.0 mm 0.00 in0.0 mm
03:50 AM 26.7°F-2.9°C 23.9°F-4.5°C 89% 2.3 mph ENE3.7 kmh ENE 3.5 mph5.6 kmh 29.98 in1015.2 mb - 0.00 in0.0 mm 0.00 in0.0 mm
04:00 AM 26.5°F-3.1°C 23.7°F-4.6°C 89% 1.2 mph ENE1.9 kmh ENE 3.5 mph5.6 kmh 29.97 in1014.9 mb - 0.00 in0.0 mm 0.00 in0.0 mm
04:10 AM 26.6°F-3.0°C 23.8°F-4.6°C 89% 1.2 mph NE1.9 kmh NE 2.3 mph3.7 kmh 29.96 in1014.6 mb - 0.00 in0.0 mm 0.00 in0.0 mm
04:20 AM 26.5°F-3.1°C 23.7°F-4.6°C 89% 1.2 mph NE1.9 kmh NE 4.6 mph7.4 kmh 29.95 in1014.2 mb - 0.00 in0.0 mm 0.00 in0.0 mm
04:30 AM 26.5°F-3.1°C 23.7°F-4.6°C 89% 2.3 mph ENE3.7 kmh ENE 4.6 mph7.4 kmh 29.95 in1014.2 mb - 0.00 in0.0 mm 0.00 in0.0 mm
04:40 AM 26.5°F-3.1°C 23.7°F-4.6°C 89% 2.3 mph NE3.7 kmh NE 3.5 mph5.6 kmh 29.96 in1014.6 mb - 0.00 in0.0 mm 0.00 in0.0 mm
04:50 AM 26.5°F-3.1°C 23.7°F-4.6°C 89% 3.5 mph NE5.6 kmh NE 6.9 mph11.1 kmh 29.96 in1014.6 mb - 0.00 in0.0 mm 0.00 in0.0 mm
05:00 AM 26.5°F-3.1°C 23.7°F-4.6°C 89% Calm Calm 2.3 mph3.7 kmh 29.97 in1014.9 mb - 0.00 in0.0 mm 0.00 in0.0 mm
05:10 AM 26.5°F-3.1°C 23.7°F-4.6°C 89% 1.2 mph E1.9 kmh E 4.6 mph7.4 kmh 29.96 in1014.6 mb - 0.00 in0.0 mm 0.00 in0.0 mm
05:20 AM 26.5°F-3.1°C 23.7°F-4.6°C 89% 1.2 mph NE1.9 kmh NE 3.5 mph5.6 kmh 29.95 in1014.2 mb - 0.00 in0.0 mm 0.00 in0.0 mm
05:30 AM 26.5°F-3.1°C 23.7°F-4.6°C 89% 2.3 mph E3.7 kmh E 3.5 mph5.6 kmh 29.95 in1014.2 mb - 0.00 in0.0 mm 0.00 in0.0 mm
05:40 AM 26.4°F-3.1°C 23.6°F-4.7°C 89% 2.3 mph NE3.7 kmh NE 6.9 mph11.1 kmh 29.94 in1013.9 mb - 0.00 in0.0 mm 0.00 in0.0 mm
05:50 AM 26.4°F-3.1°C 23.6°F-4.7°C 89% 4.6 mph NE7.4 kmh NE 6.9 mph11.1 kmh 29.93 in1013.5 mb - 0.00 in0.0 mm 0.00 in0.0 mm
06:00 AM 26.3°F-3.2°C 23.5°F-4.7°C 89% 3.5 mph NE5.6 kmh NE 5.8 mph9.3 kmh 29.93 in1013.5 mb - 0.00 in0.0 mm 0.00 in0.0 mm
06:10 AM 26.3°F-3.2°C 23.5°F-4.7°C 89% 3.5 mph NNE5.6 kmh NNE 8.1 mph13.0 kmh 29.93 in1013.5 mb - 0.00 in0.0 mm 0.00 in0.0 mm
06:20 AM 26.3°F-3.2°C 23.5°F-4.7°C 89% 2.3 mph ENE3.7 kmh ENE 4.6 mph7.4 kmh 29.93 in1013.5 mb - 0.00 in0.0 mm 0.00 in0.0 mm
06:30 AM 26.3°F-3.2°C 23.5°F-4.7°C 89% 1.2 mph E1.9 kmh E 5.8 mph9.3 kmh 29.93 in1013.5 mb - 0.00 in0.0 mm 0.00 in0.0 mm
06:40 AM 26.4°F-3.1°C 23.6°F-4.7°C 89% 4.6 mph ENE7.4 kmh ENE 9.2 mph14.8 kmh 29.93 in1013.5 mb - 0.00 in0.0 mm 0.00 in0.0 mm
06:50 AM 26.5°F-3.1°C 23.7°F-4.6°C 89% 2.3 mph E3.7 kmh E 6.9 mph11.1 kmh 29.93 in1013.5 mb - 0.00 in0.0 mm 0.00 in0.0 mm
07:00 AM 26.6°F-3.0°C 23.8°F-4.6°C 89% 3.5 mph E5.6 kmh E 4.6 mph7.4 kmh 29.93 in1013.5 mb - 0.00 in0.0 mm 0.00 in0.0 mm
07:10 AM 26.6°F-3.0°C 23.8°F-4.6°C 89% 2.3 mph ENE3.7 kmh ENE 3.5 mph5.6 kmh 29.92 in1013.2 mb - 0.00 in0.0 mm 0.00 in0.0 mm
07:20 AM 26.7°F-2.9°C 23.9°F-4.5°C 89% 4.6 mph NE7.4 kmh NE 10.4 mph16.7 kmh 29.91 in1012.9 mb - 0.00 in0.0 mm 0.00 in0.0 mm
07:30 AM 26.7°F-2.9°C 23.9°F-4.5°C 89% 3.5 mph NE5.6 kmh NE 3.5 mph5.6 kmh 29.90 in1012.5 mb - 0.00 in0.0 mm 0.00 in0.0 mm
07:40 AM 26.7°F-2.9°C 23.9°F-4.5°C 89% 2.3 mph ENE3.7 kmh ENE 8.1 mph13.0 kmh 29.90 in1012.5 mb - 0.00 in0.0 mm 0.00 in0.0 mm
07:50 AM 26.8°F-2.9°C 24.0°F-4.4°C 89% 3.5 mph NE5.6 kmh NE 4.6 mph7.4 kmh 29.89 in1012.2 mb - 0.00 in0.0 mm 0.00 in0.0 mm
08:00 AM 26.8°F-2.9°C 24.0°F-4.4°C 89% 4.6 mph NE7.4 kmh NE 6.9 mph11.1 kmh 29.88 in1011.9 mb - 0.00 in0.0 mm 0.00 in0.0 mm
08:10 AM 26.8°F-2.9°C 24.0°F-4.4°C 89% 4.6 mph NE7.4 kmh NE 6.9 mph11.1 kmh 29.87 in1011.5 mb - 0.00 in0.0 mm 0.00 in0.0 mm
08:20 AM 26.8°F-2.9°C 24.0°F-4.4°C 89% 4.6 mph NE7.4 kmh NE 10.4 mph16.7 kmh 29.86 in1011.2 mb - 0.00 in0.0 mm 0.00 in0.0 mm
08:30 AM 26.9°F-2.8°C 24.1°F-4.4°C 89% 4.6 mph NE7.4 kmh NE 9.2 mph14.8 kmh 29.85 in1010.8 mb - 0.00 in0.0 mm 0.00 in0.0 mm
08:40 AM 26.9°F-2.8°C 24.1°F-4.4°C 89% 4.6 mph NE7.4 kmh NE 11.5 mph18.5 kmh 29.84 in1010.5 mb - 0.00 in0.0 mm 0.00 in0.0 mm
08:50 AM 27.1°F-2.7°C 24.3°F-4.3°C 89% 4.6 mph NNE7.4 kmh NNE 9.2 mph14.8 kmh 29.84 in1010.5 mb - 0.00 in0.0 mm 0.00 in0.0 mm
09:00 AM 27.2°F-2.7°C 24.4°F-4.2°C 89% 5.8 mph NE9.3 kmh NE 11.5 mph18.5 kmh 29.84 in1010.5 mb - 0.00 in0.0 mm 0.00 in0.0 mm
09:10 AM 27.3°F-2.6°C 24.5°F-4.2°C 89% 2.3 mph NNE3.7 kmh NNE 8.1 mph13.0 kmh 29.84 in1010.5 mb - 0.00 in0.0 mm 0.00 in0.0 mm
09:20 AM 27.4°F-2.6°C 24.6°F-4.1°C 89% 4.6 mph NE7.4 kmh NE 6.9 mph11.1 kmh 29.83 in1010.2 mb - 0.00 in0.0 mm 0.00 in0.0 mm
09:30 AM 27.4°F-2.6°C 24.6°F-4.1°C 89% 3.5 mph NE5.6 kmh NE 6.9 mph11.1 kmh 29.82 in1009.8 mb - 0.00 in0.0 mm 0.00 in0.0 mm
09:40 AM 27.7°F-2.4°C 24.9°F-3.9°C 89% 3.5 mph NE5.6 kmh NE 10.4 mph16.7 kmh 29.82 in1009.8 mb - 0.00 in0.0 mm 0.00 in0.0 mm
09:50 AM 28.0°F-2.2°C 24.9°F-3.9°C 88% 2.3 mph NE3.7 kmh NE 11.5 mph18.5 kmh 29.82 in1009.8 mb - 0.00 in0.0 mm 0.00 in0.0 mm
10:00 AM 28.1°F-2.2°C 25.0°F-3.9°C 88% 2.3 mph NE3.7 kmh NE 3.5 mph5.6 kmh 29.82 in1009.8 mb - 0.00 in0.0 mm 0.00 in0.0 mm
10:10 AM 28.3°F-2.1°C 25.2°F-3.8°C 88% 3.5 mph ENE5.6 kmh ENE 3.5 mph5.6 kmh 29.83 in1010.2 mb - 0.00 in0.0 mm 0.00 in0.0 mm
10:20 AM 28.5°F-1.9°C 25.4°F-3.7°C 88% 3.5 mph NE5.6 kmh NE 6.9 mph11.1 kmh 29.84 in1010.5 mb - 0.00 in0.0 mm 0.00 in0.0 mm
10:30 AM 28.7°F-1.8°C 25.6°F-3.6°C 88% 3.5 mph ENE5.6 kmh ENE 8.1 mph13.0 kmh 29.84 in1010.5 mb - 0.00 in0.0 mm 0.00 in0.0 mm
10:40 AM 28.9°F-1.7°C 25.5°F-3.6°C 87% 3.5 mph NE5.6 kmh NE 3.5 mph5.6 kmh 29.84 in1010.5 mb - 0.00 in0.0 mm 0.00 in0.0 mm
10:50 AM 29.0°F-1.7°C 25.6°F-3.6°C 87% 4.6 mph NE7.4 kmh NE 8.1 mph13.0 kmh 29.83 in1010.2 mb - 0.00 in0.0 mm 0.00 in0.0 mm
11:00 AM 29.0°F-1.7°C 25.6°F-3.6°C 87% 5.8 mph ENE9.3 kmh ENE 11.5 mph18.5 kmh 29.82 in1009.8 mb - 0.00 in0.0 mm 0.00 in0.0 mm
11:10 AM 29.2°F-1.6°C 25.5°F-3.6°C 86% 3.5 mph E5.6 kmh E 6.9 mph11.1 kmh 29.82 in1009.8 mb - 0.00 in0.0 mm 0.00 in0.0 mm
11:20 AM 29.4°F-1.4°C 25.7°F-3.5°C 86% 4.6 mph ENE7.4 kmh ENE 8.1 mph13.0 kmh 29.81 in1009.5 mb - 0.00 in0.0 mm 0.00 in0.0 mm
11:30 AM 29.6°F-1.3°C 25.9°F-3.4°C 86% 4.6 mph NE7.4 kmh NE 6.9 mph11.1 kmh 29.80 in1009.1 mb - 0.00 in0.0 mm 0.00 in0.0 mm
11:40 AM 29.7°F-1.3°C 26.0°F-3.3°C 86% 4.6 mph NE7.4 kmh NE 11.5 mph18.5 kmh 29.79 in1008.8 mb - 0.00 in0.0 mm 0.00 in0.0 mm
11:50 AM 29.8°F-1.2°C 25.8°F-3.4°C 85% 5.8 mph NE9.3 kmh NE 9.2 mph14.8 kmh 29.78 in1008.5 mb - 0.00 in0.0 mm 0.00 in0.0 mm
12:00 PM 30.1°F-1.1°C 26.1°F-3.3°C 85% 4.6 mph NE7.4 kmh NE 11.5 mph18.5 kmh 29.76 in1007.8 mb - 0.00 in0.0 mm 0.00 in0.0 mm
12:10 PM 30.3°F-0.9°C 26.3°F-3.2°C 85% 3.5 mph NE5.6 kmh NE 8.1 mph13.0 kmh 29.75 in1007.5 mb - 0.00 in0.0 mm 0.00 in0.0 mm
12:20 PM 30.5°F-0.8°C 26.5°F-3.1°C 85% 5.8 mph NNE9.3 kmh NNE 8.1 mph13.0 kmh 29.73 in1006.8 mb - 0.00 in0.0 mm 0.00 in0.0 mm
12:30 PM 30.7°F-0.7°C 26.7°F-2.9°C 85% 5.8 mph NE9.3 kmh NE 11.5 mph18.5 kmh 29.73 in1006.8 mb - 0.00 in0.0 mm 0.00 in0.0 mm
12:40 PM 30.8°F-0.7°C 26.8°F-2.9°C 85% 4.6 mph NNE7.4 kmh NNE 10.4 mph16.7 kmh 29.73 in1006.8 mb - 0.00 in0.0 mm 0.00 in0.0 mm
12:50 PM 31.0°F-0.6°C 27.0°F-2.8°C 85% 8.1 mph NE13.0 kmh NE 9.2 mph14.8 kmh 29.73 in1006.8 mb - 0.00 in0.0 mm 0.00 in0.0 mm
01:00 PM 31.2°F-0.4°C 27.2°F-2.7°C 85% 4.6 mph NE7.4 kmh NE 4.6 mph7.4 kmh 29.74 in1007.1 mb - 0.00 in0.0 mm 0.00 in0.0 mm
01:10 PM 31.5°F-0.3°C 27.2°F-2.7°C 84% 6.9 mph NE11.1 kmh NE 13.8 mph22.2 kmh 29.74 in1007.1 mb - 0.00 in0.0 mm 0.00 in0.0 mm
01:20 PM 31.8°F-0.1°C 27.5°F-2.5°C 84% 5.8 mph NE9.3 kmh NE 9.2 mph14.8 kmh 29.74 in1007.1 mb - 0.00 in0.0 mm 0.00 in0.0 mm
01:30 PM 32.0°F0.0°C 27.7°F-2.4°C 84% 4.6 mph NE7.4 kmh NE 5.8 mph9.3 kmh 29.73 in1006.8 mb - 0.00 in0.0 mm 0.00 in0.0 mm
01:40 PM 32.1°F0.1°C 27.5°F-2.5°C 83% 3.5 mph NE5.6 kmh NE 8.1 mph13.0 kmh 29.73 in1006.8 mb - 0.00 in0.0 mm 0.00 in0.0 mm
01:50 PM 32.2°F0.1°C 27.6°F-2.4°C 83% 5.8 mph NE9.3 kmh NE 9.2 mph14.8 kmh 29.73 in1006.8 mb - 0.00 in0.0 mm 0.00 in0.0 mm
02:00 PM 32.4°F0.2°C 27.8°F-2.3°C 83% 2.3 mph NE3.7 kmh NE 4.6 mph7.4 kmh 29.72 in1006.4 mb - 0.00 in0.0 mm 0.00 in0.0 mm
02:10 PM 32.4°F0.2°C 27.8°F-2.3°C 83% 5.8 mph NE9.3 kmh NE 9.2 mph14.8 kmh 29.71 in1006.1 mb - 0.00 in0.0 mm 0.00 in0.0 mm
02:20 PM 32.5°F0.3°C 27.9°F-2.3°C 83% 4.6 mph NE7.4 kmh NE 8.1 mph13.0 kmh 29.70 in1005.8 mb - 0.00 in0.0 mm 0.00 in0.0 mm
02:30 PM 32.6°F0.3°C 28.0°F-2.2°C 83% 4.6 mph NE7.4 kmh NE 8.1 mph13.0 kmh 29.70 in1005.8 mb - 0.00 in0.0 mm 0.00 in0.0 mm
02:40 PM 32.6°F0.3°C 28.0°F-2.2°C 83% 3.5 mph NE5.6 kmh NE 8.1 mph13.0 kmh 29.71 in1006.1 mb - 0.00 in0.0 mm 0.00 in0.0 mm
02:50 PM 32.8°F0.4°C 28.2°F-2.1°C 83% 4.6 mph ENE7.4 kmh ENE 6.9 mph11.1 kmh 29.71 in1006.1 mb - 0.00 in0.0 mm 0.00 in0.0 mm
03:00 PM 32.9°F0.5°C 28.0°F-2.2°C 82% 2.3 mph NE3.7 kmh NE 5.8 mph9.3 kmh 29.71 in1006.1 mb - 0.00 in0.0 mm 0.00 in0.0 mm
03:10 PM 33.0°F0.6°C 28.1°F-2.2°C 82% 5.8 mph NE9.3 kmh NE 10.4 mph16.7 kmh 29.71 in1006.1 mb - 0.00 in0.0 mm 0.00 in0.0 mm
03:20 PM 33.0°F0.6°C 28.1°F-2.2°C 82% 4.6 mph NE7.4 kmh NE 10.4 mph16.7 kmh 29.71 in1006.1 mb - 0.00 in0.0 mm 0.00 in0.0 mm
03:30 PM 33.0°F0.6°C 28.1°F-2.2°C 82% 3.5 mph NE5.6 kmh NE 10.4 mph16.7 kmh 29.70 in1005.8 mb - 0.00 in0.0 mm 0.00 in0.0 mm
03:40 PM 32.8°F0.4°C 28.2°F-2.1°C 83% 6.9 mph ENE11.1 kmh ENE 11.5 mph18.5 kmh 29.70 in1005.8 mb - 0.00 in0.0 mm 0.00 in0.0 mm
03:50 PM 32.6°F0.3°C 28.3°F-2.1°C 84% 3.5 mph NE5.6 kmh NE 5.8 mph9.3 kmh 29.70 in1005.8 mb - 0.00 in0.0 mm 0.00 in0.0 mm
04:00 PM 32.4°F0.2°C 28.4°F-2.0°C 85% 4.6 mph NE7.4 kmh NE 10.4 mph16.7 kmh 29.70 in1005.8 mb - 0.00 in0.0 mm 0.00 in0.0 mm
04:10 PM 32.2°F0.1°C 28.5°F-1.9°C 86% 3.5 mph NE5.6 kmh NE 9.2 mph14.8 kmh 29.70 in1005.8 mb - 0.00 in0.0 mm 0.00 in0.0 mm
04:20 PM 32.0°F0.0°C 28.6°F-1.9°C 87% 3.5 mph NE5.6 kmh NE 9.2 mph14.8 kmh 29.69 in1005.4 mb - 0.00 in0.0 mm 0.00 in0.0 mm
04:30 PM 31.9°F-0.1°C 28.5°F-1.9°C 87% 3.5 mph NE5.6 kmh NE 4.6 mph7.4 kmh 29.69 in1005.4 mb - 0.00 in0.0 mm 0.00 in0.0 mm
04:40 PM 31.9°F-0.1°C 28.8°F-1.8°C 88% 3.5 mph NE5.6 kmh NE 9.2 mph14.8 kmh 29.68 in1005.1 mb - 0.00 in0.0 mm 0.00 in0.0 mm
04:50 PM 31.9°F-0.1°C 28.8°F-1.8°C 88% 3.5 mph NE5.6 kmh NE 8.1 mph13.0 kmh 29.68 in1005.1 mb - 0.00 in0.0 mm 0.00 in0.0 mm
05:00 PM 32.1°F0.1°C 28.9°F-1.7°C 88% 3.5 mph NE5.6 kmh NE 5.8 mph9.3 kmh 29.68 in1005.1 mb - 0.00 in0.0 mm 0.00 in0.0 mm
05:10 PM 32.1°F0.1°C 28.9°F-1.7°C 88% 3.5 mph NE5.6 kmh NE 9.2 mph14.8 kmh 29.68 in1005.1 mb - 0.00 in0.0 mm 0.00 in0.0 mm
05:20 PM 32.0°F0.0°C 29.1°F-1.6°C 89% 4.6 mph NNE7.4 kmh NNE 11.5 mph18.5 kmh 29.68 in1005.1 mb - 0.00 in0.0 mm 0.00 in0.0 mm
05:30 PM 31.9°F-0.1°C 29.0°F-1.7°C 89% 4.6 mph ENE7.4 kmh ENE 9.2 mph14.8 kmh 29.67 in1004.7 mb - 0.00 in0.0 mm 0.00 in0.0 mm
05:40 PM 31.9°F-0.1°C 29.0°F-1.7°C 89% 5.8 mph NE9.3 kmh NE 8.1 mph13.0 kmh 29.67 in1004.7 mb - 0.00 in0.0 mm 0.00 in0.0 mm
05:50 PM 32.0°F0.0°C 29.1°F-1.6°C 89% 5.8 mph NE9.3 kmh NE 11.5 mph18.5 kmh 29.67 in1004.7 mb - 0.00 in0.0 mm 0.00 in0.0 mm
06:00 PM 32.0°F0.0°C 29.1°F-1.6°C 89% 4.6 mph NE7.4 kmh NE 9.2 mph14.8 kmh 29.67 in1004.7 mb - 0.00 in0.0 mm 0.00 in0.0 mm
06:10 PM 32.0°F0.0°C 29.1°F-1.6°C 89% 6.9 mph NE11.1 kmh NE 9.2 mph14.8 kmh 29.67 in1004.7 mb - 0.00 in0.0 mm 0.00 in0.0 mm
06:20 PM 32.0°F0.0°C 29.1°F-1.6°C 89% 4.6 mph NNE7.4 kmh NNE 6.9 mph11.1 kmh 29.66 in1004.4 mb - 0.00 in0.0 mm 0.00 in0.0 mm
06:30 PM 31.9°F-0.1°C 28.8°F-1.8°C 88% 3.5 mph NE5.6 kmh NE 8.1 mph13.0 kmh 29.66 in1004.4 mb - 0.00 in0.0 mm 0.00 in0.0 mm
06:40 PM 31.9°F-0.1°C 28.8°F-1.8°C 88% 3.5 mph NE5.6 kmh NE 4.6 mph7.4 kmh 29.67 in1004.7 mb - 0.00 in0.0 mm 0.00 in0.0 mm
06:50 PM 31.8°F-0.1°C 28.7°F-1.8°C 88% 4.6 mph NE7.4 kmh NE 8.1 mph13.0 kmh 29.67 in1004.7 mb - 0.00 in0.0 mm 0.00 in0.0 mm
07:00 PM 31.9°F-0.1°C 28.7°F-1.8°C 88% 3.5 mph NE5.6 kmh NE 10.4 mph16.7 kmh 29.66 in1004.4 mb - 0.00 in0.0 mm 0.00 in0.0 mm
07:10 PM 31.9°F-0.1°C 28.8°F-1.8°C 88% 4.6 mph NE7.4 kmh NE 4.6 mph7.4 kmh 29.66 in1004.4 mb - 0.00 in0.0 mm 0.00 in0.0 mm
07:20 PM 31.9°F-0.1°C 28.8°F-1.8°C 88% 5.8 mph NE9.3 kmh NE 9.2 mph14.8 kmh 29.66 in1004.4 mb - 0.00 in0.0 mm 0.00 in0.0 mm
07:30 PM 31.9°F-0.1°C 28.8°F-1.8°C 88% 4.6 mph NE7.4 kmh NE 4.6 mph7.4 kmh 29.66 in1004.4 mb - 0.00 in0.0 mm 0.00 in0.0 mm
07:40 PM 32.0°F0.0°C 28.8°F-1.8°C 88% 3.5 mph ENE5.6 kmh ENE 8.1 mph13.0 kmh 29.65 in1004.1 mb - 0.00 in0.0 mm 0.00 in0.0 mm
07:50 PM 32.1°F0.1°C 28.7°F-1.8°C 87% 5.8 mph NE9.3 kmh NE 5.8 mph9.3 kmh 29.65 in1004.1 mb - 0.00 in0.0 mm 0.00 in0.0 mm
08:00 PM 32.1°F0.1°C 28.7°F-1.8°C 87% 8.1 mph NNE13.0 kmh NNE 15.0 mph24.1 kmh 29.64 in1003.7 mb - 0.00 in0.0 mm 0.00 in0.0 mm
08:10 PM 32.1°F0.1°C 28.7°F-1.8°C 87% 4.6 mph ENE7.4 kmh ENE 4.6 mph7.4 kmh 29.64 in1003.7 mb - 0.00 in0.0 mm 0.00 in0.0 mm
08:20 PM 32.1°F0.1°C 28.7°F-1.8°C 87% 5.8 mph NE9.3 kmh NE 15.0 mph24.1 kmh 29.64 in1003.7 mb - 0.00 in0.0 mm 0.00 in0.0 mm
08:30 PM 32.1°F0.1°C 28.7°F-1.8°C 87% 4.6 mph NE7.4 kmh NE 4.6 mph7.4 kmh 29.64 in1003.7 mb - 0.00 in0.0 mm 0.00 in0.0 mm
08:40 PM 32.1°F0.1°C 28.4°F-2.0°C 86% 6.9 mph NE11.1 kmh NE 12.7 mph20.4 kmh 29.64 in1003.7 mb - 0.00 in0.0 mm 0.00 in0.0 mm
08:50 PM 32.1°F0.1°C 28.4°F-2.0°C 86% 4.6 mph NE7.4 kmh NE 6.9 mph11.1 kmh 29.64 in1003.7 mb - 0.00 in0.0 mm 0.00 in0.0 mm
09:00 PM 32.1°F0.1°C 28.4°F-2.0°C 86% 6.9 mph NE11.1 kmh NE 13.8 mph22.2 kmh 29.64 in1003.7 mb - 0.00 in0.0 mm 0.00 in0.0 mm
09:10 PM 32.1°F0.1°C 28.4°F-2.0°C 86% 3.5 mph NE5.6 kmh NE 11.5 mph18.5 kmh 29.64 in1003.7 mb - 0.00 in0.0 mm 0.00 in0.0 mm
09:20 PM 32.1°F0.1°C 28.4°F-2.0°C 86% 4.6 mph NNE7.4 kmh NNE 9.2 mph14.8 kmh 29.64 in1003.7 mb - 0.00 in0.0 mm 0.00 in0.0 mm
09:30 PM 32.1°F0.1°C 28.1°F-2.2°C 85% 4.6 mph NE7.4 kmh NE 16.1 mph25.9 kmh 29.64 in1003.7 mb - 0.00 in0.0 mm 0.00 in0.0 mm
09:40 PM 32.1°F0.1°C 28.1°F-2.2°C 85% 5.8 mph NE9.3 kmh NE 6.9 mph11.1 kmh 29.64 in1003.7 mb - 0.00 in0.0 mm 0.00 in0.0 mm
09:50 PM 32.1°F0.1°C 28.1°F-2.2°C 85% 5.8 mph NNE9.3 kmh NNE 13.8 mph22.2 kmh 29.64 in1003.7 mb - 0.00 in0.0 mm 0.00 in0.0 mm
10:00 PM 32.1°F0.1°C 28.1°F-2.2°C 85% 5.8 mph NNE9.3 kmh NNE 9.2 mph14.8 kmh 29.64 in1003.7 mb - 0.00 in0.0 mm 0.00 in0.0 mm
10:10 PM 32.2°F0.1°C 27.9°F-2.3°C 84% 5.8 mph NE9.3 kmh NE 12.7 mph20.4 kmh 29.63 in1003.4 mb - 0.00 in0.0 mm 0.00 in0.0 mm
10:20 PM 32.3°F0.2°C 28.0°F-2.2°C 84% 6.9 mph NE11.1 kmh NE 12.7 mph20.4 kmh 29.63 in1003.4 mb - 0.00 in0.0 mm 0.00 in0.0 mm
10:30 PM 32.4°F0.2°C 28.1°F-2.2°C 84% 5.8 mph ENE9.3 kmh ENE 9.2 mph14.8 kmh 29.63 in1003.4 mb - 0.00 in0.0 mm 0.00 in0.0 mm
10:40 PM 32.5°F0.3°C 28.2°F-2.1°C 84% 3.5 mph NE5.6 kmh NE 6.9 mph11.1 kmh 29.63 in1003.4 mb - 0.00 in0.0 mm 0.00 in0.0 mm
10:50 PM 32.5°F0.3°C 28.2°F-2.1°C 84% 5.8 mph NNE9.3 kmh NNE 10.4 mph16.7 kmh 29.63 in1003.4 mb - 0.00 in0.0 mm 0.00 in0.0 mm
11:00 PM 32.5°F0.3°C 28.2°F-2.1°C 84% 9.2 mph NE14.8 kmh NE 15.0 mph24.1 kmh 29.63 in1003.4 mb - 0.00 in0.0 mm 0.00 in0.0 mm
11:10 PM 32.5°F0.3°C 28.2°F-2.1°C 84% 4.6 mph NE7.4 kmh NE 10.4 mph16.7 kmh 29.63 in1003.4 mb - 0.00 in0.0 mm 0.00 in0.0 mm
11:20 PM 32.5°F0.3°C 28.2°F-2.1°C 84% 5.8 mph NE9.3 kmh NE 15.0 mph24.1 kmh 29.63 in1003.4 mb - 0.00 in0.0 mm 0.00 in0.0 mm
11:30 PM 32.5°F0.3°C 28.5°F-1.9°C 85% 5.8 mph NE9.3 kmh NE 8.1 mph13.0 kmh 29.63 in1003.4 mb - 0.00 in0.0 mm 0.00 in0.0 mm
11:40 PM 32.4°F0.2°C 28.4°F-2.0°C 85% 4.6 mph NNE7.4 kmh NNE 4.6 mph7.4 kmh 29.63 in1003.4 mb - 0.00 in0.0 mm 0.00 in0.0 mm
11:50 PM 32.4°F0.2°C 28.4°F-2.0°C 85% 6.9 mph NE11.1 kmh NE 11.5 mph18.5 kmh 29.63 in1003.4 mb - 0.00 in0.0 mm 0.00 in0.0 mm